sensor_id;sensor_type;location;lat;lon;timestamp;temperature;humidity
61323;DHT22;47203;48.428;11.974;2024-02-14T00:00:55;8.20;54.30
61323;DHT22;47203;48.428;11.974;2024-02-14T00:02:58;8.30;54.30
61323;DHT22;47203;48.428;11.974;2024-02-14T00:05:02;8.20;54.20
61323;DHT22;47203;48.428;11.974;2024-02-14T00:07:05;8.10;54.30
61323;DHT22;47203;48.428;11.974;2024-02-14T00:09:08;8.10;54.40
61323;DHT22;47203;48.428;11.974;2024-02-14T00:11:13;8.10;54.40
61323;DHT22;47203;48.428;11.974;2024-02-14T00:13:17;8.00;54.40
61323;DHT22;47203;48.428;11.974;2024-02-14T00:15:22;8.00;54.40
61323;DHT22;47203;48.428;11.974;2024-02-14T00:17:26;8.00;54.60
61323;DHT22;47203;48.428;11.974;2024-02-14T00:19:30;7.90;54.60
61323;DHT22;47203;48.428;11.974;2024-02-14T00:21:34;7.90;54.60
61323;DHT22;47203;48.428;11.974;2024-02-14T00:23:38;7.90;54.60
61323;DHT22;47203;48.428;11.974;2024-02-14T00:25:41;7.90;54.70
61323;DHT22;47203;48.428;11.974;2024-02-14T00:27:45;7.90;55.20
61323;DHT22;47203;48.428;11.974;2024-02-14T00:29:49;7.90;54.70
61323;DHT22;47203;48.428;11.974;2024-02-14T00:31:54;7.90;54.70
61323;DHT22;47203;48.428;11.974;2024-02-14T00:33:57;7.80;54.80
61323;DHT22;47203;48.428;11.974;2024-02-14T00:36:01;7.80;54.80
61323;DHT22;47203;48.428;11.974;2024-02-14T00:38:05;7.80;54.80
61323;DHT22;47203;48.428;11.974;2024-02-14T00:40:09;7.80;54.80
61323;DHT22;47203;48.428;11.974;2024-02-14T00:42:13;7.80;54.90
61323;DHT22;47203;48.428;11.974;2024-02-14T00:44:17;7.80;54.90
61323;DHT22;47203;48.428;11.974;2024-02-14T00:46:20;7.80;55.00
61323;DHT22;47203;48.428;11.974;2024-02-14T00:48:25;7.80;55.10
61323;DHT22;47203;48.428;11.974;2024-02-14T00:50:29;7.80;55.10
61323;DHT22;47203;48.428;11.974;2024-02-14T00:52:32;7.80;55.10
61323;DHT22;47203;48.428;11.974;2024-02-14T00:54:36;7.80;55.10
61323;DHT22;47203;48.428;11.974;2024-02-14T00:56:40;7.80;55.20
61323;DHT22;47203;48.428;11.974;2024-02-14T00:58:43;7.80;55.20
61323;DHT22;47203;48.428;11.974;2024-02-14T01:00:46;7.80;55.30
61323;DHT22;47203;48.428;11.974;2024-02-14T01:02:51;7.80;55.30
61323;DHT22;47203;48.428;11.974;2024-02-14T01:04:56;7.80;55.30
61323;DHT22;47203;48.428;11.974;2024-02-14T01:06:59;7.80;55.30
61323;DHT22;47203;48.428;11.974;2024-02-14T01:09:03;7.80;55.40
61323;DHT22;47203;48.428;11.974;2024-02-14T01:11:06;7.80;55.40
61323;DHT22;47203;48.428;11.974;2024-02-14T01:13:10;7.80;55.40
61323;DHT22;47203;48.428;11.974;2024-02-14T01:15:14;7.80;55.40
61323;DHT22;47203;48.428;11.974;2024-02-14T01:17:18;7.90;55.50
61323;DHT22;47203;48.428;11.974;2024-02-14T01:19:21;7.80;56.00
61323;DHT22;47203;48.428;11.974;2024-02-14T01:21:27;7.80;55.40
61323;DHT22;47203;48.428;11.974;2024-02-14T01:23:30;7.80;55.40
61323;DHT22;47203;48.428;11.974;2024-02-14T01:25:33;7.80;55.30
61323;DHT22;47203;48.428;11.974;2024-02-14T01:27:38;7.90;55.30
61323;DHT22;47203;48.428;11.974;2024-02-14T01:29:42;7.90;55.50
61323;DHT22;47203;48.428;11.974;2024-02-14T01:31:46;7.90;55.40
61323;DHT22;47203;48.428;11.974;2024-02-14T01:33:50;7.80;55.40
61323;DHT22;47203;48.428;11.974;2024-02-14T01:35:57;7.80;55.90
61323;DHT22;47203;48.428;11.974;2024-02-14T01:38:02;7.80;55.50
61323;DHT22;47203;48.428;11.974;2024-02-14T01:40:07;7.80;55.50
61323;DHT22;47203;48.428;11.974;2024-02-14T01:42:11;7.80;55.50
61323;DHT22;47203;48.428;11.974;2024-02-14T01:44:14;7.80;55.60
61323;DHT22;47203;48.428;11.974;2024-02-14T01:46:18;7.70;55.50
61323;DHT22;47203;48.428;11.974;2024-02-14T01:48:22;7.80;55.70
61323;DHT22;47203;48.428;11.974;2024-02-14T01:50:26;7.80;55.70
61323;DHT22;47203;48.428;11.974;2024-02-14T01:52:32;7.80;55.70
61323;DHT22;47203;48.428;11.974;2024-02-14T01:54:37;7.80;55.70
61323;DHT22;47203;48.428;11.974;2024-02-14T01:56:40;7.80;55.70
61323;DHT22;47203;48.428;11.974;2024-02-14T01:58:44;7.80;55.70
61323;DHT22;47203;48.428;11.974;2024-02-14T02:00:47;7.80;55.60
61323;DHT22;47203;48.428;11.974;2024-02-14T02:02:51;7.90;55.70
61323;DHT22;47203;48.428;11.974;2024-02-14T02:04:56;7.90;55.70
61323;DHT22;47203;48.428;11.974;2024-02-14T02:06:59;7.90;55.70
61323;DHT22;47203;48.428;11.974;2024-02-14T02:09:03;7.90;55.70
61323;DHT22;47203;48.428;11.974;2024-02-14T02:11:09;7.90;55.70
61323;DHT22;47203;48.428;11.974;2024-02-14T02:13:12;7.90;55.70
61323;DHT22;47203;48.428;11.974;2024-02-14T02:15:17;8.00;55.70
61323;DHT22;47203;48.428;11.974;2024-02-14T02:17:21;8.00;55.70
61323;DHT22;47203;48.428;11.974;2024-02-14T02:19:24;8.00;55.70
61323;DHT22;47203;48.428;11.974;2024-02-14T02:21:28;8.00;55.70
61323;DHT22;47203;48.428;11.974;2024-02-14T02:23:33;8.00;55.70
61323;DHT22;47203;48.428;11.974;2024-02-14T02:25:37;8.10;55.70
61323;DHT22;47203;48.428;11.974;2024-02-14T02:27:39;8.10;55.60
61323;DHT22;47203;48.428;11.974;2024-02-14T02:29:43;8.10;55.60
61323;DHT22;47203;48.428;11.974;2024-02-14T02:31:50;8.10;55.60
61323;DHT22;47203;48.428;11.974;2024-02-14T02:33:54;8.10;55.70
61323;DHT22;47203;48.428;11.974;2024-02-14T02:35:58;8.10;55.60
61323;DHT22;47203;48.428;11.974;2024-02-14T02:38:01;8.10;55.50
61323;DHT22;47203;48.428;11.974;2024-02-14T02:40:07;8.10;55.60
61323;DHT22;47203;48.428;11.974;2024-02-14T02:42:12;8.10;55.60
61323;DHT22;47203;48.428;11.974;2024-02-14T02:44:16;8.10;55.60
61323;DHT22;47203;48.428;11.974;2024-02-14T02:46:20;8.10;55.60
61323;DHT22;47203;48.428;11.974;2024-02-14T02:48:24;8.20;55.70
61323;DHT22;47203;48.428;11.974;2024-02-14T02:50:28;8.10;55.60
61323;DHT22;47203;48.428;11.974;2024-02-14T02:52:32;8.20;55.60
61323;DHT22;47203;48.428;11.974;2024-02-14T02:54:35;8.20;55.70
61323;DHT22;47203;48.428;11.974;2024-02-14T02:56:40;8.20;55.60
61323;DHT22;47203;48.428;11.974;2024-02-14T02:58:43;8.20;55.60
61323;DHT22;47203;48.428;11.974;2024-02-14T03:00:47;8.20;56.20
61323;DHT22;47203;48.428;11.974;2024-02-14T03:02:51;8.20;55.60
61323;DHT22;47203;48.428;11.974;2024-02-14T03:04:55;8.20;55.60
61323;DHT22;47203;48.428;11.974;2024-02-14T03:07:01;8.20;55.60
61323;DHT22;47203;48.428;11.974;2024-02-14T03:09:09;8.20;55.60
61323;DHT22;47203;48.428;11.974;2024-02-14T03:11:15;8.20;55.60
61323;DHT22;47203;48.428;11.974;2024-02-14T03:13:20;8.20;55.60
61323;DHT22;47203;48.428;11.974;2024-02-14T03:15:23;8.20;55.50
61323;DHT22;47203;48.428;11.974;2024-02-14T03:17:27;8.20;55.50
61323;DHT22;47203;48.428;11.974;2024-02-14T03:19:31;8.20;55.60
61323;DHT22;47203;48.428;11.974;2024-02-14T03:21:40;8.20;55.60
61323;DHT22;47203;48.428;11.974;2024-02-14T03:23:45;8.20;55.60
61323;DHT22;47203;48.428;11.974;2024-02-14T03:25:48;8.10;55.50
61323;DHT22;47203;48.428;11.974;2024-02-14T03:27:51;8.10;55.60
61323;DHT22;47203;48.428;11.974;2024-02-14T03:29:57;8.10;55.60
61323;DHT22;47203;48.428;11.974;2024-02-14T03:32:01;8.10;55.60
61323;DHT22;47203;48.428;11.974;2024-02-14T03:34:06;8.10;55.60
61323;DHT22;47203;48.428;11.974;2024-02-14T03:36:10;8.10;55.60
61323;DHT22;47203;48.428;11.974;2024-02-14T03:38:13;8.10;55.60
61323;DHT22;47203;48.428;11.974;2024-02-14T03:40:27;8.10;55.60
61323;DHT22;47203;48.428;11.974;2024-02-14T03:42:32;8.10;55.50
61323;DHT22;47203;48.428;11.974;2024-02-14T03:44:36;8.10;55.50
61323;DHT22;47203;48.428;11.974;2024-02-14T03:46:43;8.00;55.40
61323;DHT22;47203;48.428;11.974;2024-02-14T03:48:46;8.00;55.50
61323;DHT22;47203;48.428;11.974;2024-02-14T03:50:50;8.00;55.50
61323;DHT22;47203;48.428;11.974;2024-02-14T03:52:54;8.00;55.50
61323;DHT22;47203;48.428;11.974;2024-02-14T03:54:57;7.90;55.50
61323;DHT22;47203;48.428;11.974;2024-02-14T03:57:00;7.90;55.60
61323;DHT22;47203;48.428;11.974;2024-02-14T03:59:03;7.90;55.50
61323;DHT22;47203;48.428;11.974;2024-02-14T04:01:09;7.90;55.50
61323;DHT22;47203;48.428;11.974;2024-02-14T04:03:15;7.90;55.60
61323;DHT22;47203;48.428;11.974;2024-02-14T04:05:18;7.80;55.50
61323;DHT22;47203;48.428;11.974;2024-02-14T04:07:22;7.80;55.60
61323;DHT22;47203;48.428;11.974;2024-02-14T04:09:26;7.80;55.60
61323;DHT22;47203;48.428;11.974;2024-02-14T04:11:30;7.80;55.60
61323;DHT22;47203;48.428;11.974;2024-02-14T04:13:32;7.80;55.70
61323;DHT22;47203;48.428;11.974;2024-02-14T04:15:36;7.70;55.70
61323;DHT22;47203;48.428;11.974;2024-02-14T04:17:39;7.70;55.80
61323;DHT22;47203;48.428;11.974;2024-02-14T04:19:44;7.60;55.70
61323;DHT22;47203;48.428;11.974;2024-02-14T04:21:48;7.70;55.80
61323;DHT22;47203;48.428;11.974;2024-02-14T04:23:52;7.70;55.80
61323;DHT22;47203;48.428;11.974;2024-02-14T04:25:55;7.70;55.80
61323;DHT22;47203;48.428;11.974;2024-02-14T04:27:59;7.60;55.80
61323;DHT22;47203;48.428;11.974;2024-02-14T04:30:04;7.70;55.90
61323;DHT22;47203;48.428;11.974;2024-02-14T04:32:08;7.60;55.80
61323;DHT22;47203;48.428;11.974;2024-02-14T04:34:12;7.60;55.80
61323;DHT22;47203;48.428;11.974;2024-02-14T04:36:17;7.60;55.90
61323;DHT22;47203;48.428;11.974;2024-02-14T04:38:21;7.60;55.90
61323;DHT22;47203;48.428;11.974;2024-02-14T04:40:25;7.60;55.90
61323;DHT22;47203;48.428;11.974;2024-02-14T04:42:28;7.60;56.00
61323;DHT22;47203;48.428;11.974;2024-02-14T04:44:32;7.60;56.00
61323;DHT22;47203;48.428;11.974;2024-02-14T04:46:38;7.60;56.00
61323;DHT22;47203;48.428;11.974;2024-02-14T04:48:45;7.60;56.00
61323;DHT22;47203;48.428;11.974;2024-02-14T04:50:49;7.50;56.10
61323;DHT22;47203;48.428;11.974;2024-02-14T04:52:52;7.50;56.10
61323;DHT22;47203;48.428;11.974;2024-02-14T04:54:56;7.60;56.20
61323;DHT22;47203;48.428;11.974;2024-02-14T04:56:59;7.50;56.20
61323;DHT22;47203;48.428;11.974;2024-02-14T04:59:04;7.50;56.20
61323;DHT22;47203;48.428;11.974;2024-02-14T05:01:10;7.60;56.20
61323;DHT22;47203;48.428;11.974;2024-02-14T05:03:14;7.60;56.20
61323;DHT22;47203;48.428;11.974;2024-02-14T05:05:17;7.60;56.20
61323;DHT22;47203;48.428;11.974;2024-02-14T05:07:21;7.60;56.20
61323;DHT22;47203;48.428;11.974;2024-02-14T05:09:26;7.60;56.20
61323;DHT22;47203;48.428;11.974;2024-02-14T05:11:30;7.60;56.10
61323;DHT22;47203;48.428;11.974;2024-02-14T05:13:34;7.60;56.10
61323;DHT22;47203;48.428;11.974;2024-02-14T05:15:39;7.60;56.10
61323;DHT22;47203;48.428;11.974;2024-02-14T05:17:43;7.60;56.10
61323;DHT22;47203;48.428;11.974;2024-02-14T05:19:47;7.60;56.20
61323;DHT22;47203;48.428;11.974;2024-02-14T05:21:51;7.70;56.30
61323;DHT22;47203;48.428;11.974;2024-02-14T05:23:54;7.70;56.30
61323;DHT22;47203;48.428;11.974;2024-02-14T05:25:59;7.70;56.20
61323;DHT22;47203;48.428;11.974;2024-02-14T05:28:04;7.70;56.20
61323;DHT22;47203;48.428;11.974;2024-02-14T05:30:08;7.80;56.20
61323;DHT22;47203;48.428;11.974;2024-02-14T05:32:11;7.80;56.20
61323;DHT22;47203;48.428;11.974;2024-02-14T05:34:15;7.90;56.10
61323;DHT22;47203;48.428;11.974;2024-02-14T05:36:18;7.90;56.10
61323;DHT22;47203;48.428;11.974;2024-02-14T05:38:22;7.90;56.00
61323;DHT22;47203;48.428;11.974;2024-02-14T05:40:25;8.00;56.00
61323;DHT22;47203;48.428;11.974;2024-02-14T05:42:30;8.00;55.90
61323;DHT22;47203;48.428;11.974;2024-02-14T05:44:33;8.00;55.80
61323;DHT22;47203;48.428;11.974;2024-02-14T05:46:37;8.10;55.70
61323;DHT22;47203;48.428;11.974;2024-02-14T05:48:40;8.10;55.60
61323;DHT22;47203;48.428;11.974;2024-02-14T05:50:44;8.20;55.60
61323;DHT22;47203;48.428;11.974;2024-02-14T05:52:48;8.20;55.50
61323;DHT22;47203;48.428;11.974;2024-02-14T05:54:51;8.20;55.40
61323;DHT22;47203;48.428;11.974;2024-02-14T05:56:55;8.20;55.30
61323;DHT22;47203;48.428;11.974;2024-02-14T05:59:01;8.30;55.30
61323;DHT22;47203;48.428;11.974;2024-02-14T06:01:05;8.30;55.20
61323;DHT22;47203;48.428;11.974;2024-02-14T06:03:08;8.30;55.10
61323;DHT22;47203;48.428;11.974;2024-02-14T06:05:12;8.30;55.10
61323;DHT22;47203;48.428;11.974;2024-02-14T06:07:16;8.30;55.00
61323;DHT22;47203;48.428;11.974;2024-02-14T06:09:19;8.40;55.10
61323;DHT22;47203;48.428;11.974;2024-02-14T06:11:22;8.30;55.00
61323;DHT22;47203;48.428;11.974;2024-02-14T06:13:26;8.30;54.90
61323;DHT22;47203;48.428;11.974;2024-02-14T06:15:31;8.30;54.90
61323;DHT22;47203;48.428;11.974;2024-02-14T06:17:34;8.30;55.00
61323;DHT22;47203;48.428;11.974;2024-02-14T06:19:38;8.30;55.00
61323;DHT22;47203;48.428;11.974;2024-02-14T06:21:42;8.30;55.00
61323;DHT22;47203;48.428;11.974;2024-02-14T06:23:45;8.30;55.00
61323;DHT22;47203;48.428;11.974;2024-02-14T06:25:49;8.30;55.10
61323;DHT22;47203;48.428;11.974;2024-02-14T06:27:53;8.30;55.10
61323;DHT22;47203;48.428;11.974;2024-02-14T06:29:56;8.30;55.00
61323;DHT22;47203;48.428;11.974;2024-02-14T06:32:03;8.30;55.10
61323;DHT22;47203;48.428;11.974;2024-02-14T06:34:07;8.30;55.10
61323;DHT22;47203;48.428;11.974;2024-02-14T06:36:10;8.30;55.10
61323;DHT22;47203;48.428;11.974;2024-02-14T06:38:13;8.30;55.10
61323;DHT22;47203;48.428;11.974;2024-02-14T06:40:18;8.30;55.10
61323;DHT22;47203;48.428;11.974;2024-02-14T06:42:22;8.30;55.10
61323;DHT22;47203;48.428;11.974;2024-02-14T06:44:25;8.30;55.10
61323;DHT22;47203;48.428;11.974;2024-02-14T06:46:29;8.30;55.10
61323;DHT22;47203;48.428;11.974;2024-02-14T06:48:34;8.30;55.10
61323;DHT22;47203;48.428;11.974;2024-02-14T06:50:42;8.40;55.10
61323;DHT22;47203;48.428;11.974;2024-02-14T06:52:45;8.40;55.10
61323;DHT22;47203;48.428;11.974;2024-02-14T06:54:49;8.40;55.10
61323;DHT22;47203;48.428;11.974;2024-02-14T06:56:52;8.40;55.10
61323;DHT22;47203;48.428;11.974;2024-02-14T06:58:54;8.40;55.10
61323;DHT22;47203;48.428;11.974;2024-02-14T07:01:02;8.50;55.00
61323;DHT22;47203;48.428;11.974;2024-02-14T07:03:05;8.60;55.00
61323;DHT22;47203;48.428;11.974;2024-02-14T07:05:11;8.50;55.00
61323;DHT22;47203;48.428;11.974;2024-02-14T07:07:16;8.60;55.00
61323;DHT22;47203;48.428;11.974;2024-02-14T07:09:19;8.60;55.00
61323;DHT22;47203;48.428;11.974;2024-02-14T07:11:23;8.60;55.60
61323;DHT22;47203;48.428;11.974;2024-02-14T07:13:27;8.60;55.10
61323;DHT22;47203;48.428;11.974;2024-02-14T07:15:32;8.60;55.00
61323;DHT22;47203;48.428;11.974;2024-02-14T07:17:35;8.60;55.00
61323;DHT22;47203;48.428;11.974;2024-02-14T07:19:40;8.60;55.00
61323;DHT22;47203;48.428;11.974;2024-02-14T07:21:47;8.70;55.00
61323;DHT22;47203;48.428;11.974;2024-02-14T07:23:50;8.70;55.00
61323;DHT22;47203;48.428;11.974;2024-02-14T07:25:55;8.80;55.00
61323;DHT22;47203;48.428;11.974;2024-02-14T07:27:59;8.80;55.00
61323;DHT22;47203;48.428;11.974;2024-02-14T07:30:05;8.80;54.90
61323;DHT22;47203;48.428;11.974;2024-02-14T07:32:09;8.90;55.00
61323;DHT22;47203;48.428;11.974;2024-02-14T07:34:12;9.00;55.00
61323;DHT22;47203;48.428;11.974;2024-02-14T07:36:16;9.00;54.90
61323;DHT22;47203;48.428;11.974;2024-02-14T07:38:21;9.00;54.80
61323;DHT22;47203;48.428;11.974;2024-02-14T07:40:25;9.10;54.80
61323;DHT22;47203;48.428;11.974;2024-02-14T07:42:29;9.10;54.80
61323;DHT22;47203;48.428;11.974;2024-02-14T07:44:33;9.20;54.90
61323;DHT22;47203;48.428;11.974;2024-02-14T07:46:37;9.10;54.80
61323;DHT22;47203;48.428;11.974;2024-02-14T07:48:41;9.20;54.90
61323;DHT22;47203;48.428;11.974;2024-02-14T07:50:45;9.10;54.80
61323;DHT22;47203;48.428;11.974;2024-02-14T07:52:48;9.20;54.80
61323;DHT22;47203;48.428;11.974;2024-02-14T07:54:53;9.20;54.80
61323;DHT22;47203;48.428;11.974;2024-02-14T07:56:57;9.30;54.90
61323;DHT22;47203;48.428;11.974;2024-02-14T07:59:00;9.30;54.90
61323;DHT22;47203;48.428;11.974;2024-02-14T08:01:04;9.30;54.90
61323;DHT22;47203;48.428;11.974;2024-02-14T08:03:07;9.30;55.00
61323;DHT22;47203;48.428;11.974;2024-02-14T08:05:11;9.30;55.00
61323;DHT22;47203;48.428;11.974;2024-02-14T08:07:15;9.40;55.10
61323;DHT22;47203;48.428;11.974;2024-02-14T08:09:18;9.40;55.00
61323;DHT22;47203;48.428;11.974;2024-02-14T08:11:22;9.50;55.00
61323;DHT22;47203;48.428;11.974;2024-02-14T08:13:26;9.50;54.80
61323;DHT22;47203;48.428;11.974;2024-02-14T08:15:30;9.50;54.70
61323;DHT22;47203;48.428;11.974;2024-02-14T08:17:34;9.60;54.60
61323;DHT22;47203;48.428;11.974;2024-02-14T08:19:39;9.70;54.70
61323;DHT22;47203;48.428;11.974;2024-02-14T08:21:42;9.70;54.70
61323;DHT22;47203;48.428;11.974;2024-02-14T08:23:46;9.80;55.20
61323;DHT22;47203;48.428;11.974;2024-02-14T08:25:49;9.80;54.40
61323;DHT22;47203;48.428;11.974;2024-02-14T08:27:54;9.90;54.40
61323;DHT22;47203;48.428;11.974;2024-02-14T08:29:58;9.90;54.20
61323;DHT22;47203;48.428;11.974;2024-02-14T08:32:02;10.00;54.10
61323;DHT22;47203;48.428;11.974;2024-02-14T08:34:06;10.00;54.00
61323;DHT22;47203;48.428;11.974;2024-02-14T08:36:11;10.10;53.90
61323;DHT22;47203;48.428;11.974;2024-02-14T08:38:15;10.10;53.90
61323;DHT22;47203;48.428;11.974;2024-02-14T08:40:19;10.10;53.90
61323;DHT22;47203;48.428;11.974;2024-02-14T08:42:22;10.20;53.90
61323;DHT22;47203;48.428;11.974;2024-02-14T08:44:27;10.20;53.90
61323;DHT22;47203;48.428;11.974;2024-02-14T08:46:31;10.30;53.90
61323;DHT22;47203;48.428;11.974;2024-02-14T08:48:35;10.30;53.90
61323;DHT22;47203;48.428;11.974;2024-02-14T08:50:42;10.30;54.00
61323;DHT22;47203;48.428;11.974;2024-02-14T08:52:47;10.40;54.00
61323;DHT22;47203;48.428;11.974;2024-02-14T08:54:52;10.50;54.10
61323;DHT22;47203;48.428;11.974;2024-02-14T08:56:55;10.50;54.10
61323;DHT22;47203;48.428;11.974;2024-02-14T08:59:01;10.60;54.00
61323;DHT22;47203;48.428;11.974;2024-02-14T09:01:06;10.60;54.10
61323;DHT22;47203;48.428;11.974;2024-02-14T09:03:16;10.80;54.30
61323;DHT22;47203;48.428;11.974;2024-02-14T09:05:20;10.80;54.40
61323;DHT22;47203;48.428;11.974;2024-02-14T09:07:24;11.00;54.40
61323;DHT22;47203;48.428;11.974;2024-02-14T09:09:28;11.10;54.40
61323;DHT22;47203;48.428;11.974;2024-02-14T09:11:30;11.10;54.10
61323;DHT22;47203;48.428;11.974;2024-02-14T09:13:34;11.20;54.10
61323;DHT22;47203;48.428;11.974;2024-02-14T09:15:37;11.30;54.00
61323;DHT22;47203;48.428;11.974;2024-02-14T09:17:42;11.40;53.90
61323;DHT22;47203;48.428;11.974;2024-02-14T09:19:46;11.40;53.90
61323;DHT22;47203;48.428;11.974;2024-02-14T09:21:50;11.50;54.10
61323;DHT22;47203;48.428;11.974;2024-02-14T09:23:54;11.40;54.00
61323;DHT22;47203;48.428;11.974;2024-02-14T09:25:57;11.40;54.10
61323;DHT22;47203;48.428;11.974;2024-02-14T09:28:01;11.40;54.30
61323;DHT22;47203;48.428;11.974;2024-02-14T09:30:06;11.50;54.70
61323;DHT22;47203;48.428;11.974;2024-02-14T09:32:18;11.50;54.90
61323;DHT22;47203;48.428;11.974;2024-02-14T09:34:23;11.50;55.00
61323;DHT22;47203;48.428;11.974;2024-02-14T09:36:27;11.60;55.20
61323;DHT22;47203;48.428;11.974;2024-02-14T09:38:30;11.60;55.30
61323;DHT22;47203;48.428;11.974;2024-02-14T09:40:34;11.80;55.50
61323;DHT22;47203;48.428;11.974;2024-02-14T09:42:40;11.90;55.50
61323;DHT22;47203;48.428;11.974;2024-02-14T09:44:50;12.00;55.70
61323;DHT22;47203;48.428;11.974;2024-02-14T09:47:00;12.30;55.80
61323;DHT22;47203;48.428;11.974;2024-02-14T09:49:06;12.40;55.50
61323;DHT22;47203;48.428;11.974;2024-02-14T09:51:12;12.50;54.80
61323;DHT22;47203;48.428;11.974;2024-02-14T09:53:17;12.30;54.20
61323;DHT22;47203;48.428;11.974;2024-02-14T09:55:23;12.70;53.90
61323;DHT22;47203;48.428;11.974;2024-02-14T09:57:29;12.80;53.40
61323;DHT22;47203;48.428;11.974;2024-02-14T09:59:34;12.80;53.10
61323;DHT22;47203;48.428;11.974;2024-02-14T10:01:39;12.80;53.00
61323;DHT22;47203;48.428;11.974;2024-02-14T10:03:43;12.90;53.00
61323;DHT22;47203;48.428;11.974;2024-02-14T10:05:45;12.90;52.60
61323;DHT22;47203;48.428;11.974;2024-02-14T10:07:51;12.90;52.40
61323;DHT22;47203;48.428;11.974;2024-02-14T10:10:06;12.90;52.20
61323;DHT22;47203;48.428;11.974;2024-02-14T10:12:10;12.90;51.90
61323;DHT22;47203;48.428;11.974;2024-02-14T10:14:14;12.90;52.90
61323;DHT22;47203;48.428;11.974;2024-02-14T10:16:18;12.90;52.20
61323;DHT22;47203;48.428;11.974;2024-02-14T10:18:25;13.00;52.30
61323;DHT22;47203;48.428;11.974;2024-02-14T10:20:29;13.00;52.00
61323;DHT22;47203;48.428;11.974;2024-02-14T10:22:36;13.10;51.90
61323;DHT22;47203;48.428;11.974;2024-02-14T10:24:42;13.20;51.90
61323;DHT22;47203;48.428;11.974;2024-02-14T10:26:45;13.20;51.70
61323;DHT22;47203;48.428;11.974;2024-02-14T10:28:49;13.40;52.10
61323;DHT22;47203;48.428;11.974;2024-02-14T10:30:54;13.50;52.10
61323;DHT22;47203;48.428;11.974;2024-02-14T10:32:59;13.60;51.80
61323;DHT22;47203;48.428;11.974;2024-02-14T10:35:20;13.80;51.80
61323;DHT22;47203;48.428;11.974;2024-02-14T10:37:24;14.00;51.20
61323;DHT22;47203;48.428;11.974;2024-02-14T10:39:32;14.10;51.30
61323;DHT22;47203;48.428;11.974;2024-02-14T10:41:41;14.30;50.90
61323;DHT22;47203;48.428;11.974;2024-02-14T10:43:45;14.40;50.60
61323;DHT22;47203;48.428;11.974;2024-02-14T10:45:49;14.60;50.60
61323;DHT22;47203;48.428;11.974;2024-02-14T10:47:56;14.70;50.60
61323;DHT22;47203;48.428;11.974;2024-02-14T10:50:05;14.90;50.50
61323;DHT22;47203;48.428;11.974;2024-02-14T10:52:11;15.20;50.70
61323;DHT22;47203;48.428;11.974;2024-02-14T10:54:16;15.50;50.40
61323;DHT22;47203;48.428;11.974;2024-02-14T10:56:22;15.70;50.40
61323;DHT22;47203;48.428;11.974;2024-02-14T10:58:29;16.00;50.10
61323;DHT22;47203;48.428;11.974;2024-02-14T11:00:34;16.40;49.70
61323;DHT22;47203;48.428;11.974;2024-02-14T11:02:38;16.70;49.20
61323;DHT22;47203;48.428;11.974;2024-02-14T11:04:43;16.90;48.70
61323;DHT22;47203;48.428;11.974;2024-02-14T11:06:48;17.10;48.20
61323;DHT22;47203;48.428;11.974;2024-02-14T11:08:57;17.30;47.80
61323;DHT22;47203;48.428;11.974;2024-02-14T11:11:02;17.40;47.40
61323;DHT22;47203;48.428;11.974;2024-02-14T11:13:10;17.50;47.10
61323;DHT22;47203;48.428;11.974;2024-02-14T11:15:20;17.50;46.30
61323;DHT22;47203;48.428;11.974;2024-02-14T11:17:26;17.50;46.20
61323;DHT22;47203;48.428;11.974;2024-02-14T11:19:33;17.60;47.00
61323;DHT22;47203;48.428;11.974;2024-02-14T11:21:40;17.80;46.70
61323;DHT22;47203;48.428;11.974;2024-02-14T11:23:53;18.00;46.20
61323;DHT22;47203;48.428;11.974;2024-02-14T11:26:01;18.20;45.70
61323;DHT22;47203;48.428;11.974;2024-02-14T11:28:13;18.40;45.80
61323;DHT22;47203;48.428;11.974;2024-02-14T11:30:29;18.70;45.30
61323;DHT22;47203;48.428;11.974;2024-02-14T11:32:33;18.90;45.10
61323;DHT22;47203;48.428;11.974;2024-02-14T11:34:36;19.30;45.90
61323;DHT22;47203;48.428;11.974;2024-02-14T11:36:42;19.60;45.20
61323;DHT22;47203;48.428;11.974;2024-02-14T11:38:46;19.80;44.30
61323;DHT22;47203;48.428;11.974;2024-02-14T11:40:54;20.00;44.00
61323;DHT22;47203;48.428;11.974;2024-02-14T11:42:58;20.30;43.10
61323;DHT22;47203;48.428;11.974;2024-02-14T11:45:01;20.50;43.50
61323;DHT22;47203;48.428;11.974;2024-02-14T11:47:07;20.60;42.80
61323;DHT22;47203;48.428;11.974;2024-02-14T11:49:11;20.80;42.90
61323;DHT22;47203;48.428;11.974;2024-02-14T11:51:14;21.00;42.10
61323;DHT22;47203;48.428;11.974;2024-02-14T11:53:18;21.20;41.80
61323;DHT22;47203;48.428;11.974;2024-02-14T11:55:28;21.40;41.90
61323;DHT22;47203;48.428;11.974;2024-02-14T11:57:31;21.60;40.10
61323;DHT22;47203;48.428;11.974;2024-02-14T11:59:34;21.80;40.40
61323;DHT22;47203;48.428;11.974;2024-02-14T12:01:38;21.80;40.00
61323;DHT22;47203;48.428;11.974;2024-02-14T12:03:43;22.00;40.30
61323;DHT22;47203;48.428;11.974;2024-02-14T12:05:51;21.80;40.50
61323;DHT22;47203;48.428;11.974;2024-02-14T12:07:56;21.90;40.20
61323;DHT22;47203;48.428;11.974;2024-02-14T12:09:59;22.10;40.20
61323;DHT22;47203;48.428;11.974;2024-02-14T12:12:03;22.10;39.80
61323;DHT22;47203;48.428;11.974;2024-02-14T12:14:08;22.00;39.30
61323;DHT22;47203;48.428;11.974;2024-02-14T12:16:12;21.90;38.90
61323;DHT22;47203;48.428;11.974;2024-02-14T12:18:17;21.60;38.80
61323;DHT22;47203;48.428;11.974;2024-02-14T12:20:23;21.30;38.90
61323;DHT22;47203;48.428;11.974;2024-02-14T12:22:26;21.00;39.10
61323;DHT22;47203;48.428;11.974;2024-02-14T12:24:29;20.70;39.40
61323;DHT22;47203;48.428;11.974;2024-02-14T12:26:33;20.50;39.80
61323;DHT22;47203;48.428;11.974;2024-02-14T12:28:37;20.20;40.10
61323;DHT22;47203;48.428;11.974;2024-02-14T12:30:43;19.90;40.40
61323;DHT22;47203;48.428;11.974;2024-02-14T12:32:58;19.70;40.60
61323;DHT22;47203;48.428;11.974;2024-02-14T12:35:06;19.40;40.60
61323;DHT22;47203;48.428;11.974;2024-02-14T12:37:11;19.20;41.10
61323;DHT22;47203;48.428;11.974;2024-02-14T12:39:15;19.00;41.50
61323;DHT22;47203;48.428;11.974;2024-02-14T12:41:18;18.80;41.90
61323;DHT22;47203;48.428;11.974;2024-02-14T12:43:21;18.70;42.20
61323;DHT22;47203;48.428;11.974;2024-02-14T12:45:24;18.50;42.40
61323;DHT22;47203;48.428;11.974;2024-02-14T12:47:27;18.40;42.60
61323;DHT22;47203;48.428;11.974;2024-02-14T12:49:34;18.30;42.80
61323;DHT22;47203;48.428;11.974;2024-02-14T12:51:38;18.20;43.10
61323;DHT22;47203;48.428;11.974;2024-02-14T12:53:43;18.10;43.20
61323;DHT22;47203;48.428;11.974;2024-02-14T12:55:47;18.00;43.40
61323;DHT22;47203;48.428;11.974;2024-02-14T12:57:49;17.90;43.70
61323;DHT22;47203;48.428;11.974;2024-02-14T12:59:53;17.90;43.90
61323;DHT22;47203;48.428;11.974;2024-02-14T13:01:56;17.90;44.20